Time;durP1;ratioP1;P1;durP2;ratioP2;P2;SDS_P1;SDS_P2;PMS_P1;PMS_P2;Temp;Humidity;BMP_temperature;BMP_pressure;BME280_temperature;BME280_humidity;BME280_pressure;Samples;Min_cycle;Max_cycle;Signal;HPM_P1;HPM_P2
2022/01/29 00:02:12;;;;;;;3.25;1.10;;;;;;;0.21;100.00;98353.53;5173046;27;20128;-53
2022/01/29 00:04:40;;;;;;;0.80;0.80;;;;;;;0.14;100.00;98354.00;5173285;27;20098;-52
2022/01/29 00:07:06;;;;;;;1.15;1.05;;;;;;;0.19;100.00;98344.97;5173264;27;20110;-54
2022/01/29 00:09:33;;;;;;;2.08;1.38;;;;;;;0.16;100.00;98342.88;5172952;27;20046;-53
2022/01/29 00:11:59;;;;;;;1.50;1.10;;;;;;;0.21;100.00;98331.97;5173247;27;20126;-53
2022/01/29 00:14:25;;;;;;;1.35;1.17;;;;;;;0.22;100.00;98333.53;5172836;27;20103;-50
2022/01/29 00:16:52;;;;;;;1.40;1.30;;;;;;;0.16;100.00;98342.88;5173167;27;20204;-52
2022/01/29 00:19:18;;;;;;;1.83;1.40;;;;;;;0.11;100.00;98340.38;5171386;27;20049;-50
2022/01/29 00:21:44;;;;;;;1.42;1.30;;;;;;;0.19;100.00;98334.16;5172688;27;20046;-52
2022/01/29 00:24:10;;;;;;;1.20;1.10;;;;;;;0.25;100.00;98313.25;5172665;27;20047;-54
2022/01/29 00:26:37;;;;;;;2.50;1.35;;;;;;;0.09;100.00;98329.09;5172498;27;20054;-51
2022/01/29 00:29:09;;;;;;;1.08;1.08;;;;;;;0.08;100.00;98333.69;5172699;27;20056;-52
2022/01/29 00:31:35;;;;;;;1.30;1.20;;;;;;;0.02;100.00;98332.25;5172642;27;20084;-50
2022/01/29 00:34:02;;;;;;;3.47;1.02;;;;;;;-0.03;100.00;98338.59;5172696;27;20049;-51
2022/01/29 00:36:29;;;;;;;1.20;1.10;;;;;;;0.01;100.00;98344.16;5172339;27;20077;-53
2022/01/29 00:38:55;;;;;;;1.10;1.00;;;;;;;0.07;100.00;98336.69;5172754;27;20490;-50
2022/01/29 00:41:21;;;;;;;1.27;1.10;;;;;;;0.11;100.00;98346.53;5172378;27;20102;-53
2022/01/29 00:43:47;;;;;;;1.27;1.00;;;;;;;0.15;100.00;98357.47;5172818;27;20477;-53
2022/01/29 00:46:13;;;;;;;1.30;1.20;;;;;;;0.14;100.00;98362.09;5172395;27;20057;-50
2022/01/29 00:48:39;;;;;;;1.13;1.02;;;;;;;0.22;100.00;98369.38;5172506;27;20042;-50
2022/01/29 00:51:06;;;;;;;1.45;1.20;;;;;;;0.17;100.00;98380.31;5172171;27;20046;-50
2022/01/29 00:53:33;;;;;;;0.90;0.90;;;;;;;0.11;100.00;98388.88;5172282;27;20050;-50
2022/01/29 00:55:59;;;;;;;1.13;1.13;;;;;;;0.08;100.00;98393.00;5172228;27;20050;-50
2022/01/29 00:58:25;;;;;;;1.10;1.10;;;;;;;0.04;100.00;98400.13;5172340;27;20050;-49
2022/01/29 01:00:51;;;;;;;2.72;1.25;;;;;;;-0.01;100.00;98414.50;5172220;27;20050;-50
2022/01/29 01:03:17;;;;;;;1.58;1.48;;;;;;;-0.07;100.00;98423.88;5172344;27;20057;-51
2022/01/29 01:05:44;;;;;;;1.00;1.00;;;;;;;0.01;100.00;98421.50;5172642;27;20046;-53
2022/01/29 01:08:11;;;;;;;1.25;1.05;;;;;;;-0.03;100.00;98437.50;5172507;27;20058;-50
2022/01/29 01:10:37;;;;;;;1.00;0.88;;;;;;;-0.02;100.00;98439.88;5172585;27;20178;-50
2022/01/29 01:13:04;;;;;;;1.27;1.17;;;;;;;0.03;100.00;98444.31;5172364;27;20365;-51
2022/01/29 01:15:30;;;;;;;1.00;1.00;;;;;;;0.02;100.00;98445.44;5172249;27;20505;-52
2022/01/29 01:17:56;;;;;;;3.00;1.20;;;;;;;-0.08;100.00;98462.69;5171996;27;20049;-51
2022/01/29 01:20:23;;;;;;;3.83;1.25;;;;;;;-0.06;100.00;98465.88;5171758;27;20050;-52
2022/01/29 01:22:49;;;;;;;2.15;1.10;;;;;;;-0.04;100.00;98471.72;5171897;27;20078;-49
2022/01/29 01:25:16;;;;;;;1.15;1.05;;;;;;;-0.11;100.00;98471.38;5171841;27;20058;-51
2022/01/29 01:27:42;;;;;;;1.20;1.10;;;;;;;-0.03;100.00;98473.34;5171770;27;20050;-51
2022/01/29 01:30:10;;;;;;;1.08;1.05;;;;;;;-0.06;100.00;98483.94;5171733;27;20086;-51
2022/01/29 01:32:37;;;;;;;1.67;1.20;;;;;;;-0.02;100.00;98483.00;5175202;27;20133;-51
2022/01/29 01:35:10;;;;;;;1.05;1.00;;;;;;;-0.05;100.00;98486.31;5175586;27;20568;-52
2022/01/29 01:37:43;;;;;;;0.90;0.90;;;;;;;-0.05;100.00;98496.31;5175579;27;20046;-50
2022/01/29 01:40:10;;;;;;;1.77;1.65;;;;;;;-0.10;100.00;98482.94;5175459;27;20102;-52
2022/01/29 01:42:38;;;;;;;1.00;1.00;;;;;;;-0.13;100.00;98492.47;5175622;27;20085;-52
2022/01/29 01:45:05;;;;;;;1.10;1.00;;;;;;;-0.11;100.00;98498.31;5175223;27;20046;-51
2022/01/29 01:47:31;;;;;;;5.07;1.02;;;;;;;-0.08;100.00;98486.94;5175344;27;20054;-50
2022/01/29 01:49:58;;;;;;;1.13;1.00;;;;;;;-0.05;100.00;98494.41;5175269;27;20057;-53
2022/01/29 01:52:24;;;;;;;0.90;0.90;;;;;;;-0.17;100.00;98493.38;5175053;27;20401;-49
2022/01/29 01:54:50;;;;;;;1.02;0.90;;;;;;;-0.13;100.00;98497.88;5175330;27;20057;-51
2022/01/29 01:57:17;;;;;;;1.25;0.80;;;;;;;-0.18;100.00;98503.38;5175398;27;20054;-54
2022/01/29 01:59:44;;;;;;;1.58;0.90;;;;;;;-0.24;100.00;98505.41;5175418;27;20046;-53
2022/01/29 02:02:10;;;;;;;0.88;0.88;;;;;;;-0.27;100.00;98524.06;5174931;27;20050;-51
2022/01/29 02:04:37;;;;;;;2.58;0.95;;;;;;;-0.29;100.00;98523.59;5175304;27;20078;-51
2022/01/29 02:07:04;;;;;;;2.05;1.00;;;;;;;-0.21;100.00;98516.66;5174746;27;20050;-52
2022/01/29 02:09:32;;;;;;;0.90;0.90;;;;;;;-0.37;100.00;98530.50;5175288;27;20046;-53
2022/01/29 02:12:01;;;;;;;0.82;0.82;;;;;;;-0.37;100.00;98540.50;5174777;27;20053;-53
2022/01/29 02:14:30;;;;;;;0.60;0.60;;;;;;;-0.29;100.00;98545.16;5175024;27;20528;-54
2022/01/29 02:16:58;;;;;;;2.15;0.65;;;;;;;-0.24;100.00;98556.56;5174801;27;20054;-54
2022/01/29 02:19:25;;;;;;;0.80;0.80;;;;;;;-0.23;100.00;98568.16;5174665;27;20088;-50
2022/01/29 02:21:52;;;;;;;0.93;0.80;;;;;;;-0.28;100.00;98576.38;5174229;27;20095;-51
2022/01/29 02:24:18;;;;;;;1.10;1.00;;;;;;;-0.22;100.00;98588.63;5174663;27;20054;-51
2022/01/29 02:26:45;;;;;;;1.08;0.98;;;;;;;-0.16;100.00;98582.00;5174755;27;20046;-52
2022/01/29 02:29:11;;;;;;;2.30;1.00;;;;;;;-0.12;100.00;98588.34;5174754;27;20068;-53
2022/01/29 02:31:45;;;;;;;0.85;0.70;;;;;;;-0.11;100.00;98592.63;5174896;27;20064;-50
2022/01/29 02:34:12;;;;;;;0.80;0.80;;;;;;;-0.16;100.00;98592.78;5174590;27;20469;-50
2022/01/29 02:36:38;;;;;;;1.23;0.95;;;;;;;-0.30;100.00;98608.19;5174633;27;20054;-51
2022/01/29 02:39:05;;;;;;;1.10;0.82;;;;;;;-0.26;100.00;98598.41;5174400;27;20528;-54
2022/01/29 02:41:33;;;;;;;1.35;0.73;;;;;;;-0.37;100.00;98597.84;5174658;27;20046;-53
2022/01/29 02:44:03;;;;;;;0.82;0.82;;;;;;;-0.43;100.00;98600.97;5173260;27;20454;-53
2022/01/29 02:46:41;;;;;;;0.73;0.70;;;;;;;-0.40;100.00;98597.66;5174396;27;20053;-54
2022/01/29 02:49:08;;;;;;;2.70;0.90;;;;;;;-0.42;100.00;98605.28;5174325;27;20054;-52
2022/01/29 02:51:34;;;;;;;0.77;0.77;;;;;;;-0.45;100.00;98598.59;5174321;27;20101;-51
2022/01/29 02:54:00;;;;;;;1.23;0.90;;;;;;;-0.37;100.00;98603.22;5174198;27;20458;-53
2022/01/29 02:56:27;;;;;;;0.73;0.73;;;;;;;-0.40;100.00;98603.88;5174034;27;20050;-52
2022/01/29 02:58:54;;;;;;;0.80;0.80;;;;;;;-0.38;100.00;98595.47;5174618;27;20046;-53
2022/01/29 03:01:20;;;;;;;0.73;0.73;;;;;;;-0.27;100.00;98600.31;5174113;27;20504;-52
2022/01/29 03:03:46;;;;;;;0.98;0.90;;;;;;;-0.35;100.00;98624.50;5174388;27;20505;-52
2022/01/29 03:06:12;;;;;;;2.20;0.85;;;;;;;-0.41;100.00;98629.19;5174058;27;20085;-51
2022/01/29 03:08:39;;;;;;;0.60;0.60;;;;;;;-0.40;100.00;98641.56;5173910;27;20046;-51
2022/01/29 03:11:06;;;;;;;3.17;1.58;;;;;;;-0.36;100.00;98647.16;5173806;27;20102;-52
2022/01/29 03:13:33;;;;;;;0.88;0.88;;;;;;;-0.42;100.00;98662.63;5173885;27;20509;-52
2022/01/29 03:15:59;;;;;;;1.05;0.80;;;;;;;-0.41;100.00;98674.19;5173888;27;20047;-53
2022/01/29 03:18:25;;;;;;;2.67;0.90;;;;;;;-0.48;100.00;98679.97;5173985;27;20057;-53
2022/01/29 03:20:52;;;;;;;1.13;0.80;;;;;;;-0.44;100.00;98691.75;5173344;27;20082;-53
2022/01/29 03:23:18;;;;;;;0.98;0.90;;;;;;;-0.41;100.00;98693.81;5173601;27;20531;-52
2022/01/29 03:25:44;;;;;;;0.70;0.70;;;;;;;-0.37;100.00;98704.78;5174267;27;20050;-51
2022/01/29 03:28:10;;;;;;;1.05;0.80;;;;;;;-0.45;100.00;98722.47;5173778;27;20558;-50
2022/01/29 03:30:37;;;;;;;0.95;0.95;;;;;;;-0.54;100.00;98726.97;5174188;27;20965;-52
2022/01/29 03:33:03;;;;;;;0.98;0.90;;;;;;;-0.53;100.00;98742.03;5173814;27;20042;-51
2022/01/29 03:35:30;;;;;;;0.75;0.70;;;;;;;-0.51;100.00;98746.00;5173839;27;20047;-51
2022/01/29 03:37:56;;;;;;;4.07;1.17;;;;;;;-0.48;100.00;98758.06;5173593;27;20503;-53
2022/01/29 03:40:22;;;;;;;0.80;0.80;;;;;;;-0.46;100.00;98774.75;5173503;27;20061;-51
2022/01/29 03:42:59;;;;;;;1.50;0.93;;;;;;;-0.51;100.00;98789.09;5173406;27;20386;-51
2022/01/29 03:45:26;;;;;;;1.80;0.98;;;;;;;-0.43;100.00;98786.78;5173412;27;20421;-51
2022/01/29 03:47:52;;;;;;;1.45;0.80;;;;;;;-0.49;100.00;98804.97;5173348;27;20046;-51
2022/01/29 03:50:20;;;;;;;0.70;0.70;;;;;;;-0.44;100.00;98829.09;5173287;27;20084;-51
2022/01/29 03:52:46;;;;;;;0.80;0.80;;;;;;;-0.51;100.00;98834.88;5173587;27;20054;-53
2022/01/29 03:55:12;;;;;;;0.95;0.93;;;;;;;-0.43;100.00;98849.56;5173292;27;20056;-52
2022/01/29 03:57:38;;;;;;;0.88;0.88;;;;;;;-0.37;100.00;98866.38;5173605;27;20137;-51
2022/01/29 04:00:06;;;;;;;1.77;0.80;;;;;;;-0.49;100.00;98877.66;5173016;27;20116;-52
2022/01/29 04:02:33;;;;;;;0.80;0.80;;;;;;;-0.50;100.00;98890.34;5173152;27;20046;-53
2022/01/29 04:05:00;;;;;;;2.92;1.02;;;;;;;-0.44;100.00;98907.19;5173235;27;20050;-51
2022/01/29 04:07:26;;;;;;;0.70;0.70;;;;;;;-0.46;100.00;98916.69;5172998;27;20082;-51
2022/01/29 04:09:53;;;;;;;0.85;0.80;;;;;;;-0.51;100.00;98933.72;5172908;27;20081;-50
2022/01/29 04:12:20;;;;;;;0.70;0.70;;;;;;;-0.52;100.00;98941.00;5172899;27;20504;-50
2022/01/29 04:14:46;;;;;;;1.38;0.95;;;;;;;-0.51;100.00;98961.44;5173042;27;20046;-52
2022/01/29 04:17:12;;;;;;;0.77;0.77;;;;;;;-0.61;100.00;98961.63;5172966;27;20428;-53
2022/01/29 04:19:39;;;;;;;2.85;1.27;;;;;;;-0.64;100.00;98970.28;5173075;27;20053;-54
2022/01/29 04:22:07;;;;;;;0.80;0.80;;;;;;;-0.59;100.00;98969.41;5172337;27;20134;-50
2022/01/29 04:24:34;;;;;;;0.98;0.70;;;;;;;-0.63;100.00;98993.44;5172981;27;20170;-50
2022/01/29 04:27:02;;;;;;;2.47;0.77;;;;;;;-0.63;100.00;98995.31;5172619;27;20042;-51
2022/01/29 04:29:38;;;;;;;2.83;0.77;;;;;;;-0.58;100.00;98996.03;5173007;27;20425;-53
2022/01/29 04:32:09;;;;;;;0.73;0.70;;;;;;;-0.81;100.00;99007.72;5172855;27;20137;-53
2022/01/29 04:34:36;;;;;;;0.93;0.70;;;;;;;-0.85;100.00;99010.19;5172605;27;20046;-51
2022/01/29 04:37:02;;;;;;;0.90;0.60;;;;;;;-0.91;100.00;99014.06;5172396;27;20054;-51
2022/01/29 04:39:29;;;;;;;0.98;0.60;;;;;;;-0.99;100.00;99020.13;5172493;27;20049;-51
2022/01/29 04:41:56;;;;;;;0.57;0.57;;;;;;;-1.11;100.00;99025.13;5172555;27;20054;-51
2022/01/29 04:44:22;;;;;;;1.95;0.70;;;;;;;-1.18;100.00;99025.50;5172429;27;20050;-51
2022/01/29 04:46:48;;;;;;;0.70;0.70;;;;;;;-1.27;100.00;99028.03;5172618;27;20046;-49
2022/01/29 04:49:14;;;;;;;3.42;0.60;;;;;;;-1.30;100.00;99025.94;5172416;27;20128;-52
2022/01/29 04:51:40;;;;;;;1.58;0.77;;;;;;;-1.27;100.00;99022.63;5172818;27;20507;-54
2022/01/29 04:54:07;;;;;;;1.40;0.70;;;;;;;-1.28;100.00;99026.44;5172339;27;20141;-50
2022/01/29 04:56:34;;;;;;;0.50;0.50;;;;;;;-1.34;100.00;99032.16;5172114;27;20133;-51
2022/01/29 04:59:01;;;;;;;0.75;0.68;;;;;;;-1.32;100.00;99024.63;5172414;27;20054;-51
2022/01/29 05:01:27;;;;;;;0.60;0.60;;;;;;;-1.29;100.00;99024.03;5172274;27;20046;-53
2022/01/29 05:03:53;;;;;;;2.55;0.90;;;;;;;-1.23;100.00;99044.41;5172216;27;20094;-51
2022/01/29 05:06:20;;;;;;;1.40;0.63;;;;;;;-1.10;100.00;99048.25;5171562;27;20069;-52
2022/01/29 05:08:46;;;;;;;0.55;0.55;;;;;;;-0.95;100.00;99045.34;5172308;27;20057;-50
2022/01/29 05:11:15;;;;;;;4.28;0.90;;;;;;;-1.05;100.00;99053.56;5172112;27;20412;-51
2022/01/29 05:13:42;;;;;;;1.67;0.73;;;;;;;-0.95;100.00;99054.22;5172121;27;20042;-52
2022/01/29 05:16:35;;;;;;;0.75;0.70;;;;;;;-0.90;100.00;99049.84;5172051;27;20080;-52
2022/01/29 05:27:14;;;;;;;1.27;0.75;;;;;;;-0.96;100.00;99070.66;5172222;27;20129;-51
2022/01/29 05:29:41;;;;;;;0.70;0.70;;;;;;;-0.93;100.00;99061.19;5171871;27;20107;-51
2022/01/29 05:32:11;;;;;;;0.82;0.50;;;;;;;-0.99;100.00;99071.25;5171988;27;20050;-53
2022/01/29 05:34:37;;;;;;;6.82;0.93;;;;;;;-0.98;100.00;99075.53;5171673;27;20054;-52
2022/01/29 05:37:04;;;;;;;0.60;0.60;;;;;;;-1.03;100.00;99071.03;5171857;27;20054;-54
2022/01/29 05:39:31;;;;;;;0.68;0.65;;;;;;;-1.04;100.00;99077.47;5171628;27;20098;-51
2022/01/29 05:41:58;;;;;;;0.57;0.57;;;;;;;-1.05;100.00;99073.19;5171893;27;20505;-54
2022/01/29 05:44:25;;;;;;;1.10;0.60;;;;;;;-1.10;100.00;99084.03;5171886;27;20141;-52
2022/01/29 05:46:52;;;;;;;1.75;0.75;;;;;;;-1.15;100.00;99084.09;5171692;27;20077;-52
2022/01/29 05:49:18;;;;;;;2.60;0.77;;;;;;;-1.15;100.00;99081.41;5171950;27;20049;-52
2022/01/29 05:51:45;;;;;;;1.25;0.50;;;;;;;-1.09;100.00;99085.63;5171426;27;20524;-51
2022/01/29 05:54:11;;;;;;;0.73;0.47;;;;;;;-1.11;100.00;99098.56;5171475;27;20058;-51
2022/01/29 05:56:37;;;;;;;1.17;0.63;;;;;;;-1.06;100.00;99103.09;5171540;27;20046;-52
2022/01/29 05:59:03;;;;;;;0.98;0.70;;;;;;;-1.06;100.00;99095.81;5171829;27;20081;-51
2022/01/29 06:01:30;;;;;;;1.85;0.65;;;;;;;-1.12;100.00;99094.28;5171263;27;20260;-52
2022/01/29 06:03:57;;;;;;;1.38;0.68;;;;;;;-1.09;100.00;99100.97;5171627;27;20114;-51
2022/01/29 06:06:23;;;;;;;0.95;0.60;;;;;;;-0.99;100.00;99098.94;5171529;27;20046;-51
2022/01/29 06:08:49;;;;;;;0.40;0.40;;;;;;;-1.05;100.00;99100.09;5171449;27;20054;-52
2022/01/29 06:11:16;;;;;;;0.77;0.60;;;;;;;-1.13;100.00;99090.00;5172078;27;20130;-51
2022/01/29 06:13:42;;;;;;;0.88;0.60;;;;;;;-1.11;100.00;99097.75;5171484;27;20161;-50
2022/01/29 06:16:09;;;;;;;0.60;0.60;;;;;;;-1.02;100.00;99082.59;5171755;27;20094;-52
2022/01/29 06:18:36;;;;;;;0.50;0.50;;;;;;;-1.09;100.00;99074.06;5172750;27;20054;-52
2022/01/29 06:21:04;;;;;;;6.43;0.65;;;;;;;-1.22;100.00;99059.44;5174360;27;20489;-51
2022/01/29 06:23:32;;;;;;;1.10;0.70;;;;;;;-1.32;100.00;99049.63;5174972;27;20572;-52
2022/01/29 06:26:00;;;;;;;0.55;0.55;;;;;;;-1.25;100.00;99065.41;5175052;27;20073;-53
2022/01/29 06:28:27;;;;;;;0.82;0.50;;;;;;;-1.16;100.00;99062.88;5174581;27;20053;-52
2022/01/29 06:30:53;;;;;;;0.47;0.40;;;;;;;-1.24;100.00;99056.22;5174924;27;20050;-52
2022/01/29 06:33:19;;;;;;;0.50;0.50;;;;;;;-1.25;100.00;99051.94;5174729;27;20059;-50
2022/01/29 06:35:46;;;;;;;0.47;0.47;;;;;;;-1.21;100.00;99056.44;5174683;27;20050;-52
2022/01/29 06:38:14;;;;;;;0.50;0.50;;;;;;;-1.19;100.00;99050.81;5174922;27;20141;-53
2022/01/29 06:40:42;;;;;;;1.33;0.55;;;;;;;-1.04;100.00;99055.94;5174775;27;20050;-53
2022/01/29 06:43:09;;;;;;;1.27;0.50;;;;;;;-1.08;100.00;99032.63;5174810;27;20054;-53
2022/01/29 06:45:37;;;;;;;2.97;0.60;;;;;;;-1.10;100.00;99013.25;5174622;27;20065;-50
2022/01/29 06:48:04;;;;;;;1.13;0.70;;;;;;;-1.06;100.00;99012.41;5174462;27;20057;-52
2022/01/29 06:50:30;;;;;;;0.50;0.50;;;;;;;-1.00;100.00;99019.31;5174310;27;20042;-51
2022/01/29 06:52:58;;;;;;;3.50;1.02;;;;;;;-0.92;100.00;99034.00;5174389;27;20094;-51
2022/01/29 06:55:25;;;;;;;1.30;0.80;;;;;;;-0.94;100.00;99033.47;5174210;27;20526;-52
2022/01/29 06:57:51;;;;;;;0.63;0.63;;;;;;;-0.94;100.00;99041.56;5174191;27;20065;-50
2022/01/29 07:00:18;;;;;;;1.98;0.80;;;;;;;-0.97;100.00;99021.44;5174207;27;20084;-52
2022/01/29 07:02:44;;;;;;;0.50;0.50;;;;;;;-0.94;100.00;99011.94;5174092;27;20042;-54
2022/01/29 07:05:11;;;;;;;2.00;0.60;;;;;;;-0.96;100.00;99012.25;5174517;27;20092;-49
2022/01/29 07:07:38;;;;;;;0.68;0.65;;;;;;;-1.00;100.00;98991.59;5174114;27;20149;-54
2022/01/29 07:10:06;;;;;;;1.00;0.50;;;;;;;-1.10;100.00;98967.53;5174687;27;20772;-54
2022/01/29 07:12:33;;;;;;;0.52;0.52;;;;;;;-1.11;100.00;98987.47;5174039;27;20050;-52
2022/01/29 07:14:59;;;;;;;2.50;0.70;;;;;;;-1.04;100.00;98982.50;5174274;27;20465;-50
2022/01/29 07:17:26;;;;;;;0.82;0.60;;;;;;;-1.00;100.00;98973.56;5173845;27;20069;-51
2022/01/29 07:19:52;;;;;;;0.70;0.70;;;;;;;-0.95;100.00;98978.88;5174296;27;20046;-51
2022/01/29 07:22:19;;;;;;;0.70;0.70;;;;;;;-0.92;100.00;98974.00;5173586;27;20046;-53
2022/01/29 07:24:47;;;;;;;1.20;0.60;;;;;;;-0.87;100.00;98971.22;5174181;27;20128;-51
2022/01/29 07:27:14;;;;;;;0.65;0.65;;;;;;;-0.87;100.00;98971.22;5173858;27;20404;-51
2022/01/29 07:29:41;;;;;;;1.48;0.50;;;;;;;-0.83;100.00;98956.88;5173181;27;20157;-54
2022/01/29 07:32:08;;;;;;;2.05;0.77;;;;;;;-0.77;100.00;98974.56;5173918;27;20525;-53
2022/01/29 07:34:34;;;;;;;1.85;0.73;;;;;;;-0.75;100.00;98953.50;5173964;27;20526;-52
2022/01/29 07:37:00;;;;;;;0.60;0.60;;;;;;;-0.76;100.00;98940.34;5174158;27;20078;-53
2022/01/29 07:39:27;;;;;;;4.78;0.60;;;;;;;-0.72;100.00;98942.16;5173839;27;20046;-54
2022/01/29 07:41:55;;;;;;;0.60;0.60;;;;;;;-0.63;100.00;98868.75;5173481;27;20078;-50
2022/01/29 07:44:21;;;;;;;0.70;0.70;;;;;;;-0.43;100.00;98830.69;5173514;27;20054;-54
2022/01/29 07:46:49;;;;;;;0.60;0.60;;;;;;;-0.37;100.00;98790.97;5173851;27;20046;-54
2022/01/29 07:49:15;;;;;;;1.05;0.75;;;;;;;-0.43;100.00;98741.81;5173444;27;20050;-54
2022/01/29 07:51:42;;;;;;;1.10;0.80;;;;;;;-0.62;100.00;98731.19;5173472;27;20106;-52
2022/01/29 07:54:08;;;;;;;2.47;0.70;;;;;;;-0.56;100.00;98778.44;5173233;27;20051;-51
2022/01/29 07:56:35;;;;;;;4.45;0.73;;;;;;;-0.54;100.00;98813.13;5173236;27;20418;-53
2022/01/29 07:59:02;;;;;;;0.95;0.68;;;;;;;-0.51;100.00;98842.94;5173142;27;20425;-51
2022/01/29 08:01:29;;;;;;;4.78;0.70;;;;;;;-0.56;100.00;98853.84;5173052;27;20075;-51
2022/01/29 08:03:56;;;;;;;0.60;0.60;;;;;;;-0.63;100.00;98869.59;5173165;27;20568;-52
2022/01/29 08:06:23;;;;;;;0.60;0.60;;;;;;;-0.73;100.00;98894.81;5173078;27;20054;-53
2022/01/29 08:08:50;;;;;;;1.27;0.82;;;;;;;-0.77;100.00;98939.56;5173241;27;20057;-52
2022/01/29 08:11:17;;;;;;;0.85;0.63;;;;;;;-0.78;100.00;98985.59;5172867;27;20046;-50
2022/01/29 08:13:43;;;;;;;2.05;0.90;;;;;;;-0.75;100.00;99031.56;5172928;27;20084;-52
2022/01/29 08:16:09;;;;;;;0.85;0.80;;;;;;;-0.80;100.00;99047.00;5172745;27;20050;-52
2022/01/29 08:18:36;;;;;;;0.60;0.60;;;;;;;-0.87;100.00;99078.88;5172991;27;20065;-51
2022/01/29 08:21:03;;;;;;;0.82;0.70;;;;;;;-0.83;100.00;99102.22;5172262;27;20048;-53
2022/01/29 08:23:29;;;;;;;0.80;0.80;;;;;;;-0.78;100.00;99112.91;5172638;27;20046;-53
2022/01/29 08:25:55;;;;;;;3.53;0.60;;;;;;;-0.82;100.00;99111.91;5172632;27;20087;-52
2022/01/29 08:28:23;;;;;;;0.68;0.65;;;;;;;-0.74;100.00;99140.84;5172298;27;20046;-52
2022/01/29 08:30:50;;;;;;;1.75;0.60;;;;;;;-0.64;100.00;99141.78;5172729;27;20054;-50
2022/01/29 08:33:18;;;;;;;0.77;0.77;;;;;;;-0.54;100.00;99147.81;5172503;27;20046;-51
2022/01/29 08:35:45;;;;;;;2.45;0.90;;;;;;;-0.55;100.00;99148.94;5172763;27;20134;-51
2022/01/29 08:38:12;;;;;;;1.25;0.90;;;;;;;-0.43;100.00;99156.56;5172308;27;20050;-50
2022/01/29 08:40:38;;;;;;;1.05;0.95;;;;;;;-0.13;100.00;99171.47;5171304;27;20046;-51
2022/01/29 08:43:05;;;;;;;1.02;1.02;;;;;;;-0.01;100.00;99152.13;5172417;27;20057;-50
2022/01/29 08:45:31;;;;;;;1.40;1.00;;;;;;;0.12;100.00;99150.56;5172353;27;20087;-51
2022/01/29 08:47:58;;;;;;;2.03;1.10;;;;;;;0.08;100.00;99104.53;5172176;27;20050;-53
2022/01/29 08:50:24;;;;;;;1.20;0.90;;;;;;;0.13;100.00;99052.41;5172440;27;20400;-52
2022/01/29 08:52:50;;;;;;;1.45;0.73;;;;;;;0.03;100.00;98936.72;5172167;27;20053;-49
2022/01/29 08:55:17;;;;;;;0.85;0.85;;;;;;;-0.02;100.00;98844.09;5172132;27;20050;-50
2022/01/29 08:57:43;;;;;;;0.80;0.80;;;;;;;0.07;100.00;98786.78;5172582;27;20049;-50
2022/01/29 09:00:11;;;;;;;1.85;0.85;;;;;;;0.16;100.00;98704.88;5172097;27;20053;-53
2022/01/29 09:02:37;;;;;;;3.50;1.10;;;;;;;0.03;100.00;98635.66;5172447;27;20050;-49
2022/01/29 09:05:05;;;;;;;0.85;0.70;;;;;;;-0.03;100.00;98564.94;5172129;27;20513;-51
2022/01/29 09:07:31;;;;;;;2.58;1.00;;;;;;;-0.14;100.00;98492.75;5172339;27;20137;-53
2022/01/29 09:09:57;;;;;;;3.30;1.40;;;;;;;-0.18;100.00;98438.72;5171899;27;20133;-51
2022/01/29 09:12:24;;;;;;;1.77;1.67;;;;;;;-0.27;100.00;98389.41;5172328;27;20514;-54
2022/01/29 09:14:50;;;;;;;1.10;0.73;;;;;;;-0.36;100.00;98410.13;5172043;27;20497;-52
2022/01/29 09:17:17;;;;;;;2.10;0.77;;;;;;;-0.37;100.00;98409.31;5172020;27;20424;-50
2022/01/29 09:19:43;;;;;;;3.50;0.88;;;;;;;-0.29;100.00;98458.97;5171941;27;20085;-51
2022/01/29 09:22:09;;;;;;;1.67;0.75;;;;;;;-0.35;100.00;98471.75;5171443;27;20042;-50
2022/01/29 09:24:36;;;;;;;2.28;1.13;;;;;;;-0.33;100.00;98495.72;5171819;27;20046;-50
2022/01/29 09:27:03;;;;;;;2.63;0.93;;;;;;;-0.30;100.00;98522.00;5171615;27;20054;-53
2022/01/29 09:29:30;;;;;;;3.38;0.80;;;;;;;-0.46;100.00;98493.91;5171846;27;20046;-53
2022/01/29 09:31:56;;;;;;;0.70;0.70;;;;;;;-0.60;100.00;98510.91;5171689;27;20089;-54
2022/01/29 09:34:22;;;;;;;1.00;0.60;;;;;;;-0.62;100.00;98541.94;5171717;27;20053;-53
2022/01/29 09:36:49;;;;;;;1.25;0.50;;;;;;;-0.49;100.00;98613.78;5171418;27;20046;-50
2022/01/29 09:39:15;;;;;;;1.45;0.70;;;;;;;-0.45;100.00;98608.56;5171985;27;20133;-54
2022/01/29 09:41:44;;;;;;;3.08;1.02;;;;;;;-0.43;100.00;98623.34;5171791;27;20081;-53
2022/01/29 09:44:11;;;;;;;2.15;0.75;;;;;;;-0.32;100.00;98619.28;5171818;27;20560;-51
2022/01/29 09:46:40;;;;;;;2.55;0.80;;;;;;;-0.50;100.00;98594.13;5171440;27;20046;-55
2022/01/29 09:49:07;;;;;;;1.05;0.77;;;;;;;-0.49;100.00;98597.63;5171467;27;20050;-51
2022/01/29 09:51:33;;;;;;;1.83;0.93;;;;;;;-0.43;100.00;98646.75;5171569;27;20054;-53
2022/01/29 09:53:59;;;;;;;1.00;0.90;;;;;;;-0.48;100.00;98694.25;5174971;27;20141;-51
2022/01/29 09:56:28;;;;;;;3.65;1.20;;;;;;;-0.37;100.00;98750.56;5175316;27;20042;-53
2022/01/29 09:58:54;;;;;;;3.33;0.90;;;;;;;-0.39;100.00;98772.44;5174903;27;20053;-52
2022/01/29 10:01:20;;;;;;;1.15;0.88;;;;;;;-0.43;100.00;98792.16;5175076;27;20137;-53
2022/01/29 10:03:59;;;;;;;1.63;1.00;;;;;;;-0.38;100.00;98813.63;5174983;27;20046;-54
2022/01/29 10:06:25;;;;;;;2.83;1.13;;;;;;;-0.38;100.00;98835.16;5174964;27;20505;-51
2022/01/29 10:08:52;;;;;;;1.27;1.00;;;;;;;-0.40;100.00;98830.09;5174842;27;20529;-51
2022/01/29 10:11:20;;;;;;;2.67;0.90;;;;;;;-0.46;100.00;98819.72;5175115;27;20072;-52
2022/01/29 10:13:46;;;;;;;1.30;1.20;;;;;;;-0.48;100.00;98811.94;5174824;27;20504;-50
2022/01/29 10:16:18;;;;;;;1.42;1.10;;;;;;;-0.51;100.00;98820.63;5174931;27;20137;-53
2022/01/29 10:18:47;;;;;;;5.13;1.60;;;;;;;-0.53;100.00;98823.63;5174916;27;20042;-55
2022/01/29 10:21:17;;;;;;;1.42;1.10;;;;;;;-0.65;100.00;98820.63;5174268;27;20050;-50
2022/01/29 10:23:45;;;;;;;2.33;1.40;;;;;;;-0.75;100.00;98869.28;5174595;27;20106;-51
2022/01/29 10:26:25;;;;;;;3.22;1.10;;;;;;;-0.63;100.00;98938.75;5174418;27;20580;-52
2022/01/29 10:28:54;;;;;;;1.70;1.33;;;;;;;-0.69;100.00;98892.31;5174171;27;20182;-52
2022/01/29 10:31:20;;;;;;;1.33;1.10;;;;;;;-0.56;100.00;98883.44;5174256;27;20049;-50
2022/01/29 10:33:47;;;;;;;1.98;1.30;;;;;;;-0.41;100.00;98882.34;5174722;27;20046;-54
2022/01/29 10:36:16;;;;;;;4.05;1.40;;;;;;;-0.37;100.00;98821.38;5174644;27;20046;-51
2022/01/29 10:38:47;;;;;;;3.88;1.23;;;;;;;-0.40;100.00;98743.91;5174350;27;20054;-54
2022/01/29 10:41:18;;;;;;;1.08;0.90;;;;;;;-0.30;100.00;98676.34;5174363;27;20050;-51
2022/01/29 10:44:10;;;;;;;2.67;1.10;;;;;;;-0.33;100.00;98582.69;5174289;27;20165;-52
2022/01/29 10:46:39;;;;;;;3.20;1.10;;;;;;;-0.27;100.00;98532.16;5174271;27;20133;-52
2022/01/29 10:49:07;;;;;;;1.55;1.08;;;;;;;-0.30;100.00;98468.13;5174010;27;20545;-51
2022/01/29 10:51:35;;;;;;;2.40;1.25;;;;;;;-0.32;100.00;98416.50;5174120;27;20050;-53
2022/01/29 10:54:18;;;;;;;2.67;1.20;;;;;;;-0.17;100.00;98448.38;5174454;27;20144;-53
2022/01/29 10:56:52;;;;;;;1.10;1.00;;;;;;;-0.06;100.00;98457.78;5174203;27;20043;-50
2022/01/29 10:59:20;;;;;;;5.38;0.98;;;;;;;0.03;100.00;98470.47;5174439;27;20568;-53
2022/01/29 11:01:57;;;;;;;2.22;0.90;;;;;;;0.01;100.00;98389.19;5174471;27;20050;-50
2022/01/29 11:04:26;;;;;;;0.68;0.60;;;;;;;-0.14;100.00;98306.88;5173056;27;20050;-51
2022/01/29 11:06:57;;;;;;;0.80;0.80;;;;;;;-0.09;100.00;98315.59;5174253;27;20057;-50
2022/01/29 11:09:27;;;;;;;0.95;0.80;;;;;;;0.01;100.00;98335.28;5173865;27;20499;-50
2022/01/29 11:11:54;;;;;;;1.30;0.77;;;;;;;-0.07;100.00;98267.59;5174402;27;20461;-52
2022/01/29 11:14:22;;;;;;;4.90;1.20;;;;;;;-0.08;100.00;98243.66;5173930;27;20049;-52
2022/01/29 11:16:51;;;;;;;2.47;0.95;;;;;;;-0.08;100.00;98238.25;5174044;27;20042;-51
2022/01/29 11:19:18;;;;;;;1.70;1.10;;;;;;;-0.13;100.00;98225.75;5173958;27;20054;-53
2022/01/29 11:21:48;;;;;;;4.20;1.00;;;;;;;-0.12;100.00;98240.00;5173364;27;20061;-54
2022/01/29 11:24:18;;;;;;;1.95;1.00;;;;;;;-0.14;100.00;98253.00;5173860;27;20046;-52
2022/01/29 11:26:45;;;;;;;3.92;0.95;;;;;;;-0.08;100.00;98263.31;5173649;27;20057;-53
2022/01/29 11:29:30;;;;;;;1.38;1.10;;;;;;;0.03;100.00;98269.16;5173790;27;20057;-50
2022/01/29 11:32:26;;;;;;;2.05;1.20;;;;;;;0.04;100.00;98291.53;5173443;27;20050;-51
2022/01/29 11:35:07;;;;;;;2.60;1.20;;;;;;;0.03;100.00;98338.44;5173634;27;20133;-50
2022/01/29 11:37:41;;;;;;;1.67;1.20;;;;;;;-0.03;100.00;98341.31;5173532;27;20053;-49